createdAt,value
2022-09-07T00:00:45.552Z,19.40
2022-09-07T00:03:15.797Z,19.40
2022-09-07T00:05:45.825Z,19.40
2022-09-07T00:08:15.590Z,19.40
2022-09-07T00:10:52.811Z,19.40
2022-09-07T00:13:22.506Z,19.40
2022-09-07T00:15:52.235Z,19.50
2022-09-07T00:18:22.216Z,19.50
2022-09-07T00:21:03.626Z,19.50
2022-09-07T00:23:33.246Z,19.40
2022-09-07T00:26:03.271Z,19.50
2022-09-07T00:28:32.970Z,19.50
2022-09-07T00:31:03.043Z,19.50
2022-09-07T00:33:33.047Z,19.50
2022-09-07T00:36:03.578Z,19.50
2022-09-07T00:38:33.290Z,19.50
2022-09-07T00:41:03.071Z,19.50
2022-09-07T00:44:01.590Z,19.50
2022-09-07T00:46:33.230Z,19.60
2022-09-07T00:49:02.908Z,19.50
2022-09-07T00:51:37.832Z,19.60
2022-09-07T00:54:08.042Z,19.60
2022-09-07T00:56:38.462Z,19.60
2022-09-07T00:59:07.955Z,19.60
2022-09-07T01:01:41.972Z,19.70
2022-09-07T01:04:11.834Z,19.90
2022-09-07T01:06:42.198Z,20.00
2022-09-07T01:09:12.622Z,20.10
2022-09-07T01:11:42.164Z,20.20
2022-09-07T01:14:12.151Z,20.30
2022-09-07T01:16:48.199Z,20.40
2022-09-07T01:19:33.056Z,20.10
2022-09-07T01:22:22.461Z,20.20
2022-09-07T01:25:13.650Z,20.40
2022-09-07T01:27:48.300Z,19.60
2022-09-07T01:30:18.132Z,18.70
2022-09-07T01:32:53.816Z,18.40
2022-09-07T01:35:30.217Z,18.30
2022-09-07T01:38:15.278Z,18.20
2022-09-07T01:40:50.536Z,18.10
2022-09-07T01:43:40.067Z,18.00
2022-09-07T01:46:11.582Z,17.80
2022-09-07T01:48:41.143Z,18.00
2022-09-07T01:51:10.682Z,17.90
2022-09-07T01:53:47.150Z,17.90
2022-09-07T01:56:21.830Z,17.90
2022-09-07T01:58:53.269Z,18.10
2022-09-07T02:01:22.793Z,18.80
2022-09-07T02:04:11.950Z,19.20
2022-09-07T02:06:46.908Z,19.50
2022-09-07T02:09:29.080Z,19.70
2022-09-07T02:11:58.548Z,19.80
2022-09-07T02:14:32.562Z,20.00
2022-09-07T02:17:02.136Z,20.00
2022-09-07T02:19:38.354Z,20.10
2022-09-07T02:22:10.342Z,20.10
2022-09-07T02:24:41.275Z,20.20
2022-09-07T02:27:13.294Z,20.30
2022-09-07T02:29:44.680Z,20.30
2022-09-07T02:32:14.240Z,20.40
2022-09-07T02:34:43.701Z,20.40
2022-09-07T02:37:13.192Z,20.40
2022-09-07T02:39:42.713Z,20.40
2022-09-07T02:42:12.310Z,20.50
2022-09-07T02:44:42.251Z,20.50
2022-09-07T02:47:17.837Z,20.50
2022-09-07T02:50:07.368Z,20.50
2022-09-07T02:52:45.716Z,20.50
2022-09-07T02:55:33.832Z,20.60
2022-09-07T02:58:22.041Z,20.60
2022-09-07T03:01:06.713Z,20.60
2022-09-07T03:03:39.017Z,20.70
2022-09-07T03:06:20.159Z,20.70
2022-09-07T03:08:50.677Z,20.70
2022-09-07T03:11:20.111Z,20.70
2022-09-07T03:13:50.087Z,20.70
2022-09-07T03:16:19.808Z,20.70
2022-09-07T03:18:49.425Z,20.70
2022-09-07T03:21:18.972Z,20.80
2022-09-07T03:23:51.744Z,20.80
2022-09-07T03:26:25.059Z,20.80
2022-09-07T03:28:54.841Z,20.80
2022-09-07T03:31:24.415Z,20.80
2022-09-07T03:33:54.021Z,20.90
2022-09-07T03:36:23.469Z,20.90
2022-09-07T03:38:53.034Z,20.90
2022-09-07T03:41:22.632Z,20.90
2022-09-07T03:43:52.243Z,21.00
2022-09-07T03:46:21.937Z,21.00
2022-09-07T03:48:51.633Z,21.10
2022-09-07T03:51:21.137Z,21.10
2022-09-07T03:53:50.972Z,21.10
2022-09-07T03:56:21.250Z,21.20
2022-09-07T03:58:51.216Z,21.20
2022-09-07T04:01:21.866Z,21.20
2022-09-07T04:03:51.436Z,21.20
2022-09-07T04:06:20.984Z,21.20
2022-09-07T04:08:50.594Z,21.30
2022-09-07T04:11:20.221Z,21.30
2022-09-07T04:13:49.719Z,21.30
2022-09-07T04:16:20.331Z,21.30
2022-09-07T04:18:51.530Z,21.30
2022-09-07T04:21:21.079Z,21.30
2022-09-07T04:23:50.607Z,21.40
2022-09-07T04:26:23.955Z,21.40
2022-09-07T04:28:53.790Z,21.50
2022-09-07T04:31:23.611Z,21.50
2022-09-07T04:33:53.279Z,21.50
2022-09-07T04:36:23.637Z,21.60
2022-09-07T04:39:02.429Z,21.60
2022-09-07T04:41:32.425Z,21.60
2022-09-07T04:44:02.376Z,21.70
2022-09-07T04:46:34.788Z,21.70
2022-09-07T04:49:05.494Z,21.70
2022-09-07T04:51:35.246Z,21.80
2022-09-07T04:54:05.541Z,21.80
2022-09-07T04:56:35.128Z,21.90
2022-09-07T04:59:04.695Z,21.90
2022-09-07T05:01:34.488Z,22.00
2022-09-07T05:04:04.554Z,22.00
2022-09-07T05:06:34.130Z,22.00
2022-09-07T05:09:03.717Z,22.10
2022-09-07T05:11:33.147Z,22.10
2022-09-07T05:14:03.028Z,22.10
2022-09-07T05:16:32.826Z,22.10
2022-09-07T05:19:02.752Z,22.20
2022-09-07T05:21:36.431Z,22.30
2022-09-07T05:24:06.703Z,22.30
2022-09-07T05:26:36.748Z,22.30
2022-09-07T05:31:57.192Z,22.40
2022-09-07T05:34:30.089Z,22.40
2022-09-07T05:37:00.355Z,22.40
2022-09-07T05:39:30.279Z,22.50
2022-09-07T05:41:59.938Z,22.50
2022-09-07T05:44:45.713Z,22.50
2022-09-07T05:47:15.735Z,22.60
2022-09-07T05:49:45.326Z,22.60
2022-09-07T05:52:14.811Z,22.60
2022-09-07T05:54:44.302Z,22.70
2022-09-07T05:57:14.174Z,22.70
2022-09-07T05:59:43.680Z,22.80
2022-09-07T06:02:16.716Z,22.80
2022-09-07T06:04:46.462Z,22.80
2022-09-07T06:07:22.074Z,22.90
2022-09-07T06:12:48.957Z,23.00
2022-09-07T06:15:19.234Z,23.00
2022-09-07T06:17:48.756Z,23.00
2022-09-07T06:20:18.303Z,23.10
2022-09-07T06:22:48.044Z,23.10
2022-09-07T06:25:17.740Z,23.20
2022-09-07T06:27:49.664Z,23.20
2022-09-07T06:30:19.740Z,23.20
2022-09-07T06:32:49.683Z,23.30
2022-09-07T06:35:19.238Z,23.40
2022-09-07T06:37:49.491Z,23.40
2022-09-07T06:40:18.955Z,24.00
2022-09-07T06:42:48.423Z,25.30
2022-09-07T06:45:18.682Z,26.40
2022-09-07T06:47:48.124Z,27.10
2022-09-07T06:50:18.381Z,27.60
2022-09-07T06:55:44.451Z,28.20
2022-09-07T06:58:14.007Z,28.40
2022-09-07T07:00:43.719Z,28.60
2022-09-07T07:03:13.422Z,28.70
2022-09-07T07:05:43.033Z,28.90
2022-09-07T07:08:12.573Z,28.80
2022-09-07T07:10:42.034Z,28.80
2022-09-07T07:13:11.760Z,28.90
2022-09-07T07:15:41.276Z,29.10
2022-09-07T07:18:20.965Z,29.10
2022-09-07T07:20:50.976Z,29.10
2022-09-07T07:23:20.981Z,29.10
2022-09-07T07:25:50.448Z,29.10
2022-09-07T07:31:12.161Z,29.10
2022-09-07T07:33:42.792Z,29.10
2022-09-07T07:36:13.720Z,29.10
2022-09-07T07:44:24.249Z,29.10
2022-09-07T07:46:53.814Z,29.10
2022-09-07T07:49:23.423Z,28.90
2022-09-07T07:54:45.002Z,28.90
2022-09-07T07:57:14.578Z,28.90
2022-09-07T07:59:44.100Z,28.80
2022-09-07T08:02:15.550Z,28.80
2022-09-07T08:04:45.189Z,28.80
2022-09-07T08:07:14.709Z,28.80
2022-09-07T08:09:44.933Z,28.70
2022-09-07T08:12:15.422Z,28.50
2022-09-07T08:14:44.984Z,28.60
2022-09-07T08:17:15.008Z,28.60
2022-09-07T08:19:44.550Z,28.60
2022-09-07T08:22:14.167Z,28.50
2022-09-07T08:24:43.854Z,28.40
2022-09-07T08:27:13.292Z,28.50
2022-09-07T08:29:42.796Z,28.50
2022-09-07T08:32:12.234Z,28.50
2022-09-07T08:34:41.687Z,28.40
2022-09-07T08:37:11.351Z,28.40
2022-09-07T08:39:40.874Z,28.30
2022-09-07T08:42:28.693Z,28.30
2022-09-07T08:45:21.002Z,28.40
2022-09-07T08:47:51.049Z,28.40
2022-09-07T08:50:23.015Z,28.40
2022-09-07T08:52:53.924Z,28.40
2022-09-07T08:55:32.680Z,28.40
2022-09-07T08:58:45.234Z,28.40
2022-09-07T09:01:31.721Z,28.40
2022-09-07T09:04:17.988Z,28.30
2022-09-07T09:06:51.804Z,28.30
2022-09-07T09:09:24.918Z,28.10
2022-09-07T09:11:54.999Z,27.90
2022-09-07T09:14:32.266Z,27.70
2022-09-07T09:17:12.603Z,27.50
2022-09-07T09:19:42.070Z,27.30
2022-09-07T09:22:14.830Z,27.20
2022-09-07T09:24:47.272Z,27.10
2022-09-07T09:27:17.044Z,26.90
2022-09-07T09:29:46.497Z,26.80
2022-09-07T09:32:34.479Z,26.70
2022-09-07T09:35:03.952Z,26.60
2022-09-07T09:37:36.949Z,26.60
2022-09-07T09:40:08.334Z,26.50
2022-09-07T09:42:39.939Z,26.40
2022-09-07T09:45:14.537Z,26.30
2022-09-07T09:47:44.496Z,26.30
2022-09-07T09:53:26.540Z,26.10
2022-09-07T09:55:55.980Z,26.00
2022-09-07T10:01:35.444Z,25.90
2022-09-07T10:04:24.399Z,25.80
2022-09-07T10:07:00.633Z,25.70
2022-09-07T10:09:38.007Z,25.70
2022-09-07T10:12:08.409Z,25.60
2022-09-07T10:14:38.932Z,25.50
2022-09-07T10:17:15.300Z,25.50
2022-09-07T10:19:45.043Z,25.50
2022-09-07T10:22:25.930Z,25.40
2022-09-07T10:24:55.466Z,25.40
2022-09-07T10:27:27.684Z,25.30
2022-09-07T10:29:57.208Z,25.30
2022-09-07T10:32:55.805Z,25.20
2022-09-07T10:35:28.202Z,25.10
2022-09-07T10:37:58.171Z,25.10
2022-09-07T10:40:35.108Z,25.00
2022-09-07T10:43:23.630Z,25.00
2022-09-07T10:45:54.053Z,25.00
2022-09-07T10:48:26.322Z,24.90
2022-09-07T10:51:01.449Z,24.90
2022-09-07T10:54:30.170Z,24.90
2022-09-07T10:56:41.194Z,24.80
2022-09-07T10:59:23.573Z,24.80
2022-09-07T11:02:02.392Z,24.80
2022-09-07T11:04:31.907Z,24.80
2022-09-07T11:07:05.842Z,24.70
2022-09-07T11:09:54.095Z,24.60
2022-09-07T11:12:27.924Z,24.60
2022-09-07T11:15:01.204Z,24.60
2022-09-07T11:17:30.810Z,24.60
2022-09-07T11:20:00.445Z,24.50
2022-09-07T11:22:30.034Z,24.50
2022-09-07T11:28:17.399Z,24.50
2022-09-07T11:30:51.152Z,24.50
2022-09-07T11:33:20.926Z,24.40
2022-09-07T11:35:56.182Z,24.40
2022-09-07T11:38:27.154Z,24.30
2022-09-07T11:41:05.601Z,24.30
2022-09-07T11:43:39.322Z,24.30
2022-09-07T11:46:09.702Z,24.30
2022-09-07T11:48:49.694Z,24.30
2022-09-07T11:51:40.768Z,24.30
2022-09-07T11:54:19.447Z,24.30
2022-09-07T11:56:52.125Z,24.30
2022-09-07T11:59:21.640Z,24.30
2022-09-07T12:02:03.352Z,24.40
2022-09-07T12:04:56.033Z,24.40
2022-09-07T12:07:30.166Z,24.50
2022-09-07T12:10:00.273Z,24.40
2022-09-07T12:12:48.286Z,24.50
2022-09-07T12:15:36.016Z,24.40
2022-09-07T12:18:23.575Z,24.40
2022-09-07T12:20:53.188Z,24.40
2022-09-07T12:23:25.740Z,24.30
2022-09-07T12:25:55.748Z,24.30
2022-09-07T12:28:25.152Z,24.30
2022-09-07T12:30:58.411Z,24.30
2022-09-07T12:33:31.686Z,24.20
2022-09-07T12:36:02.111Z,24.20
2022-09-07T12:38:37.235Z,24.20
2022-09-07T12:41:16.044Z,24.20
2022-09-07T12:43:46.111Z,24.10
2022-09-07T12:46:34.967Z,24.10
2022-09-07T12:49:08.159Z,24.10
2022-09-07T12:54:36.279Z,24.10
2022-09-07T12:59:58.930Z,24.00
2022-09-07T13:03:07.188Z,24.00
2022-09-07T13:05:55.140Z,23.90
2022-09-07T13:08:36.340Z,23.90
2022-09-07T13:11:21.143Z,23.90
2022-09-07T13:14:09.567Z,23.90
2022-09-07T13:19:47.354Z,23.80
2022-09-07T13:22:45.618Z,23.80
2022-09-07T13:25:15.081Z,23.80
2022-09-07T13:28:00.909Z,23.70
2022-09-07T13:30:44.785Z,23.70
2022-09-07T13:33:25.957Z,23.60
2022-09-07T13:36:06.160Z,23.60
2022-09-07T13:38:36.287Z,23.50
2022-09-07T13:41:07.299Z,23.50
2022-09-07T13:43:37.031Z,23.40
2022-09-07T13:46:09.642Z,23.30
2022-09-07T13:48:40.754Z,23.30
2022-09-07T13:51:18.288Z,23.30
2022-09-07T13:53:53.800Z,23.20
2022-09-07T13:56:29.405Z,23.20
2022-09-07T13:58:58.883Z,23.20
2022-09-07T14:01:29.062Z,23.20
2022-09-07T14:04:00.868Z,23.20
2022-09-07T14:06:31.428Z,23.20
2022-09-07T14:09:02.074Z,23.10
2022-09-07T14:11:39.516Z,23.00
2022-09-07T14:14:09.916Z,23.00
2022-09-07T14:16:39.562Z,23.00
2022-09-07T14:19:18.070Z,22.90
2022-09-07T14:21:55.099Z,22.90
2022-09-07T14:24:44.701Z,22.90
2022-09-07T14:27:24.591Z,22.80
2022-09-07T14:29:54.259Z,22.80
2022-09-07T14:32:27.310Z,22.80
2022-09-07T14:34:56.848Z,22.80
2022-09-07T14:37:26.317Z,22.70
2022-09-07T14:39:57.549Z,22.70
2022-09-07T14:42:27.469Z,22.70
2022-09-07T14:45:15.484Z,22.70
2022-09-07T14:47:44.963Z,22.60
2022-09-07T14:50:24.868Z,22.60
2022-09-07T14:55:46.295Z,22.60
2022-09-07T14:58:16.811Z,22.50
2022-09-07T15:01:36.717Z,22.50
2022-09-07T15:03:41.100Z,22.50
2022-09-07T15:09:07.260Z,22.40
2022-09-07T15:11:37.520Z,22.40
2022-09-07T15:14:11.859Z,22.30
2022-09-07T15:16:43.962Z,22.30
2022-09-07T15:19:16.785Z,22.30
2022-09-07T15:21:46.359Z,22.30
2022-09-07T15:24:16.537Z,22.30
2022-09-07T15:27:03.950Z,22.20
2022-09-07T15:29:33.550Z,22.20
2022-09-07T15:32:05.055Z,22.20
2022-09-07T15:34:35.875Z,22.20
2022-09-07T15:38:01.202Z,22.20
2022-09-07T15:39:56.776Z,22.10
2022-09-07T15:45:16.503Z,22.00
2022-09-07T15:47:51.898Z,22.10
2022-09-07T15:50:23.705Z,22.00
2022-09-07T15:52:53.370Z,22.00
2022-09-07T15:55:22.915Z,22.00
2022-09-07T15:58:02.246Z,21.90
2022-09-07T16:00:38.542Z,22.00
2022-09-07T16:03:08.692Z,22.00
2022-09-07T16:05:41.220Z,21.90
2022-09-07T16:08:25.970Z,21.90
2022-09-07T16:11:04.498Z,21.90
2022-09-07T16:13:34.992Z,21.80
2022-09-07T16:16:07.792Z,21.80
2022-09-07T16:18:37.794Z,21.80
2022-09-07T16:21:12.422Z,21.80
2022-09-07T16:23:45.722Z,21.80
2022-09-07T16:26:15.360Z,21.70
2022-09-07T16:28:46.084Z,21.70
2022-09-07T16:31:16.892Z,21.70
2022-09-07T16:33:46.579Z,21.70
2022-09-07T16:36:16.724Z,21.70
2022-09-07T16:38:49.397Z,21.60
2022-09-07T16:41:20.416Z,21.60
2022-09-07T16:43:50.779Z,21.60
2022-09-07T16:46:21.712Z,21.60
2022-09-07T16:48:52.333Z,21.60
2022-09-07T16:51:22.416Z,21.60
2022-09-07T16:53:52.628Z,21.60
2022-09-07T16:56:23.498Z,21.60
2022-09-07T16:58:54.727Z,21.50
2022-09-07T17:01:25.667Z,21.50
2022-09-07T17:03:55.356Z,21.50
2022-09-07T17:06:26.354Z,21.50
2022-09-07T17:08:56.626Z,21.50
2022-09-07T17:11:27.090Z,21.50
2022-09-07T17:13:57.300Z,21.50
2022-09-07T17:16:28.290Z,21.40
2022-09-07T17:21:52.992Z,21.40
2022-09-07T17:24:22.650Z,21.40
2022-09-07T17:26:52.906Z,21.30
2022-09-07T17:29:22.354Z,21.30
2022-09-07T17:34:41.609Z,21.30
2022-09-07T17:37:11.589Z,21.30
2022-09-07T17:39:41.367Z,21.30
2022-09-07T17:42:11.125Z,21.20
2022-09-07T17:44:40.572Z,21.20
2022-09-07T17:47:10.108Z,21.20
2022-09-07T17:49:39.534Z,21.20
2022-09-07T17:52:09.005Z,21.20
2022-09-07T17:54:38.548Z,21.20
2022-09-07T17:57:07.940Z,21.20
2022-09-07T18:02:26.922Z,21.20
2022-09-07T18:04:56.476Z,21.10
2022-09-07T18:07:26.130Z,21.10
2022-09-07T18:09:55.624Z,21.10
2022-09-07T18:12:25.435Z,21.10
2022-09-07T18:14:54.955Z,21.10
2022-09-07T18:17:24.319Z,21.10
2022-09-07T18:19:54.429Z,21.10
2022-09-07T18:22:24.421Z,21.10
2022-09-07T18:24:53.810Z,21.00
2022-09-07T18:27:23.325Z,21.00
2022-09-07T18:29:52.706Z,21.00
2022-09-07T18:32:22.128Z,21.00
2022-09-07T18:34:51.653Z,21.00
2022-09-07T18:37:21.156Z,20.90
2022-09-07T18:39:51.779Z,20.90
2022-09-07T18:42:23.012Z,21.00
2022-09-07T18:47:44.706Z,21.00
2022-09-07T18:50:14.939Z,20.90
2022-09-07T18:52:52.583Z,20.90
2022-09-07T18:55:23.931Z,20.90
2022-09-07T18:57:54.478Z,20.80
2022-09-07T19:00:25.858Z,20.90
2022-09-07T19:02:56.984Z,20.80
2022-09-07T19:08:17.620Z,20.80
2022-09-07T19:10:48.105Z,20.80
2022-09-07T19:13:18.163Z,20.80
2022-09-07T19:15:47.723Z,20.80
2022-09-07T19:18:17.235Z,20.80
2022-09-07T19:20:46.760Z,20.80
2022-09-07T19:23:16.183Z,20.80
2022-09-07T19:25:45.552Z,20.80
2022-09-07T19:28:15.644Z,20.70
2022-09-07T19:30:45.122Z,20.70
2022-09-07T19:33:14.639Z,20.70
2022-09-07T19:35:44.153Z,20.70
2022-09-07T19:38:13.942Z,20.70
2022-09-07T19:40:43.482Z,20.70
2022-09-07T19:43:12.929Z,20.70
2022-09-07T19:45:42.365Z,20.70
2022-09-07T19:48:11.897Z,20.70
2022-09-07T19:50:41.440Z,20.60
2022-09-07T19:53:13.856Z,20.60
2022-09-07T19:55:43.953Z,20.60
2022-09-07T19:58:16.789Z,20.60
2022-09-07T20:00:46.727Z,20.60
2022-09-07T20:03:16.193Z,20.60
2022-09-07T20:05:45.678Z,20.60
2022-09-07T20:08:15.113Z,20.60
2022-09-07T20:10:44.577Z,20.60
2022-09-07T20:13:14.123Z,20.60
2022-09-07T20:15:46.474Z,20.60
2022-09-07T20:18:16.053Z,20.60
2022-09-07T20:20:45.749Z,20.60
2022-09-07T20:23:15.207Z,20.50
2022-09-07T20:25:44.601Z,20.60
2022-09-07T20:28:15.091Z,20.50
2022-09-07T20:30:45.002Z,20.50
2022-09-07T20:33:14.435Z,20.50
2022-09-07T20:35:48.764Z,20.50
2022-09-07T20:38:18.536Z,20.50
2022-09-07T20:41:01.142Z,20.60
2022-09-07T20:43:31.034Z,20.50
2022-09-07T20:46:00.891Z,20.40
2022-09-07T20:48:30.384Z,20.50
2022-09-07T20:51:00.584Z,20.50
2022-09-07T20:53:29.986Z,20.40
2022-09-07T20:56:04.247Z,20.40
2022-09-07T20:58:34.348Z,20.40
2022-09-07T21:01:04.866Z,20.40
2022-09-07T21:03:34.391Z,20.40
2022-09-07T21:06:04.393Z,20.40
2022-09-07T21:08:37.402Z,20.40
2022-09-07T21:11:11.259Z,20.40
2022-09-07T21:13:40.796Z,20.40
2022-09-07T21:16:11.148Z,20.40
2022-09-07T21:18:41.078Z,20.30
2022-09-07T21:21:19.725Z,20.30
2022-09-07T21:23:49.839Z,20.30
2022-09-07T21:26:21.653Z,20.30
2022-09-07T21:29:00.528Z,20.30
2022-09-07T21:31:30.575Z,20.30
2022-09-07T21:34:00.802Z,20.30
2022-09-07T21:36:30.678Z,20.30
2022-09-07T21:39:00.379Z,20.30
2022-09-07T21:41:29.805Z,20.30
2022-09-07T21:43:59.939Z,20.20
2022-09-07T21:46:29.847Z,20.20
2022-09-07T21:48:59.450Z,20.20
2022-09-07T21:51:28.852Z,20.20
2022-09-07T21:53:58.737Z,20.20
2022-09-07T21:56:28.719Z,20.20
2022-09-07T21:58:59.161Z,20.20
2022-09-07T22:01:29.033Z,20.20
2022-09-07T22:03:59.224Z,20.20
2022-09-07T22:06:29.125Z,20.20
2022-09-07T22:08:59.425Z,20.20
2022-09-07T22:11:29.129Z,20.10
2022-09-07T22:13:59.758Z,20.10
2022-09-07T22:16:29.345Z,20.10
2022-09-07T22:18:58.929Z,20.10
2022-09-07T22:21:28.979Z,20.10
2022-09-07T22:23:59.218Z,20.10
2022-09-07T22:26:30.534Z,20.20
2022-09-07T22:29:00.539Z,20.10
2022-09-07T22:31:30.993Z,20.10
2022-09-07T22:34:00.854Z,20.10
2022-09-07T22:36:34.441Z,20.10
2022-09-07T22:39:05.419Z,20.10
2022-09-07T22:41:35.709Z,20.10
2022-09-07T22:44:05.547Z,20.10
2022-09-07T22:46:37.159Z,20.10
2022-09-07T22:49:10.389Z,20.10
2022-09-07T22:51:41.934Z,20.10
2022-09-07T22:54:12.247Z,20.10
2022-09-07T22:56:42.001Z,20.10
2022-09-07T22:59:12.399Z,20.10
2022-09-07T23:01:41.969Z,20.10
2022-09-07T23:04:11.693Z,20.10
2022-09-07T23:06:42.635Z,20.10
2022-09-07T23:09:13.272Z,20.10
2022-09-07T23:11:42.709Z,20.10
2022-09-07T23:14:16.599Z,20.10
2022-09-07T23:16:46.190Z,20.10
2022-09-07T23:19:16.401Z,20.10
2022-09-07T23:21:45.821Z,20.10
2022-09-07T23:24:15.908Z,20.10
2022-09-07T23:26:45.413Z,20.10
2022-09-07T23:29:15.076Z,20.10
2022-09-07T23:31:44.580Z,20.10
2022-09-07T23:34:14.153Z,20.10
2022-09-07T23:36:43.678Z,20.10
2022-09-07T23:39:13.238Z,20.10
2022-09-07T23:41:42.664Z,20.10
2022-09-07T23:44:12.165Z,20.10
2022-09-07T23:46:41.850Z,20.10
2022-09-07T23:49:11.473Z,20.10
2022-09-07T23:51:40.929Z,20.10
2022-09-07T23:54:10.377Z,20.10
2022-09-07T23:56:40.314Z,20.10
2022-09-07T23:59:10.154Z,20.10
